Terminal Aerodrome Forecast
Issued by NWS

Home | Current Version | Previous Version | Text Only | Print | Product List | Glossary On
Versions: 1 2 3 4 5 6 7 8 9 10 11 12 13 14
518
FTUS43 KGRB 061600 AAA
TAFMTW
TAF AMD
KMTW 061600Z 0616/0712 26010G17KT P6SM BKN017
     FM061800 27009G18KT P6SM BKN012 BKN020
     FM070100 20008KT P6SM SCT020 OVC050=

USA.gov is the U.S. government's official web portal to all federal, state and local government web resources and services.